sensor_id;sensor_type;location;lat;lon;timestamp;pressure;altitude;pressure_sealevel;temperature;humidity
21276;BME280;36472;52.170;20.884;2023-03-14T00:01:27;98859.09;;;10.69;65.44
21276;BME280;36472;52.170;20.884;2023-03-14T00:03:56;98841.53;;;10.79;65.46
21276;BME280;36472;52.170;20.884;2023-03-14T00:06:26;98843.47;;;10.77;65.30
21276;BME280;36472;52.170;20.884;2023-03-14T00:08:55;98852.44;;;10.74;65.12
21276;BME280;36472;52.170;20.884;2023-03-14T00:11:24;98836.56;;;10.66;65.06
21276;BME280;36472;52.170;20.884;2023-03-14T00:13:53;98833.50;;;10.80;64.56
21276;BME280;36472;52.170;20.884;2023-03-14T00:16:27;98835.31;;;10.80;64.54
21276;BME280;36472;52.170;20.884;2023-03-14T00:18:57;98838.22;;;10.87;64.43
21276;BME280;36472;52.170;20.884;2023-03-14T00:21:27;98825.63;;;10.80;64.98
21276;BME280;36472;52.170;20.884;2023-03-14T00:23:56;98826.63;;;10.70;65.16
21276;BME280;36472;52.170;20.884;2023-03-14T00:26:25;98822.19;;;10.80;64.78
21276;BME280;36472;52.170;20.884;2023-03-14T00:28:54;98824.41;;;10.65;65.21
21276;BME280;36472;52.170;20.884;2023-03-14T00:31:23;98825.22;;;10.65;65.34
21276;BME280;36472;52.170;20.884;2023-03-14T00:33:54;98819.41;;;10.62;65.27
21276;BME280;36472;52.170;20.884;2023-03-14T00:36:25;98808.63;;;10.55;65.85
21276;BME280;36472;52.170;20.884;2023-03-14T00:38:55;98807.00;;;10.54;65.85
21276;BME280;36472;52.170;20.884;2023-03-14T00:41:24;98802.97;;;10.60;65.28
21276;BME280;36472;52.170;20.884;2023-03-14T00:43:53;98790.81;;;10.49;65.41
21276;BME280;36472;52.170;20.884;2023-03-14T00:46:22;98793.44;;;10.49;65.40
21276;BME280;36472;52.170;20.884;2023-03-14T00:48:51;98779.06;;;10.43;65.38
21276;BME280;36472;52.170;20.884;2023-03-14T00:51:21;98772.28;;;10.41;65.77
21276;BME280;36472;52.170;20.884;2023-03-14T00:53:50;98777.28;;;10.44;65.43
21276;BME280;36472;52.170;20.884;2023-03-14T00:56:19;98784.31;;;10.34;65.73
21276;BME280;36472;52.170;20.884;2023-03-14T00:58:48;98763.00;;;10.27;65.63
21276;BME280;36472;52.170;20.884;2023-03-14T01:01:18;98771.44;;;10.30;65.64
21276;BME280;36472;52.170;20.884;2023-03-14T01:03:50;98768.00;;;10.30;65.81
21276;BME280;36472;52.170;20.884;2023-03-14T01:06:24;98766.91;;;10.33;65.73
21276;BME280;36472;52.170;20.884;2023-03-14T01:08:54;98766.03;;;10.22;65.79
21276;BME280;36472;52.170;20.884;2023-03-14T01:11:27;98764.78;;;10.26;65.83
21276;BME280;36472;52.170;20.884;2023-03-14T01:13:58;98766.03;;;10.22;65.86
21276;BME280;36472;52.170;20.884;2023-03-14T01:16:31;98760.50;;;10.16;65.74
21276;BME280;36472;52.170;20.884;2023-03-14T01:19:01;98738.69;;;10.05;66.22
21276;BME280;36472;52.170;20.884;2023-03-14T01:21:34;98757.72;;;10.07;66.76
21276;BME280;36472;52.170;20.884;2023-03-14T01:24:06;98757.72;;;10.07;66.50
21276;BME280;36472;52.170;20.884;2023-03-14T01:26:35;98761.59;;;10.03;66.92
21276;BME280;36472;52.170;20.884;2023-03-14T01:29:06;98766.84;;;9.93;67.08
21276;BME280;36472;52.170;20.884;2023-03-14T01:31:38;98759.25;;;9.81;67.42
21276;BME280;36472;52.170;20.884;2023-03-14T01:34:07;98756.31;;;9.84;67.62
21276;BME280;36472;52.170;20.884;2023-03-14T01:36:38;98762.94;;;9.78;67.33
21276;BME280;36472;52.170;20.884;2023-03-14T01:39:07;98769.31;;;9.76;67.86
21276;BME280;36472;52.170;20.884;2023-03-14T01:41:37;98758.66;;;9.67;67.71
21276;BME280;36472;52.170;20.884;2023-03-14T01:44:09;98761.56;;;9.74;67.71
21276;BME280;36472;52.170;20.884;2023-03-14T01:46:40;98769.53;;;9.63;67.90
21276;BME280;36472;52.170;20.884;2023-03-14T01:49:22;98758.53;;;9.69;67.93
21276;BME280;36472;52.170;20.884;2023-03-14T01:52:08;98756.00;;;9.58;68.02
21276;BME280;36472;52.170;20.884;2023-03-14T01:54:42;98747.69;;;9.52;67.73
21276;BME280;36472;52.170;20.884;2023-03-14T01:57:16;98739.69;;;9.54;67.77
21276;BME280;36472;52.170;20.884;2023-03-14T01:59:51;98742.72;;;9.49;67.63
21276;BME280;36472;52.170;20.884;2023-03-14T02:02:23;98739.56;;;9.55;67.40
21276;BME280;36472;52.170;20.884;2023-03-14T02:04:55;98737.47;;;9.49;67.41
21276;BME280;36472;52.170;20.884;2023-03-14T02:07:40;98743.00;;;9.56;67.45
21276;BME280;36472;52.170;20.884;2023-03-14T02:10:21;98741.06;;;9.48;67.48
21276;BME280;36472;52.170;20.884;2023-03-14T02:12:55;98730.72;;;9.47;67.33
21276;BME280;36472;52.170;20.884;2023-03-14T02:15:43;98731.38;;;9.39;67.47
21276;BME280;36472;52.170;20.884;2023-03-14T02:18:33;98722.94;;;9.35;67.46
21276;BME280;36472;52.170;20.884;2023-03-14T02:21:26;98726.97;;;9.40;67.25
21276;BME280;36472;52.170;20.884;2023-03-14T02:24:13;98714.78;;;9.29;67.45
21276;BME280;36472;52.170;20.884;2023-03-14T02:27:13;98707.34;;;9.34;67.20
21276;BME280;36472;52.170;20.884;2023-03-14T02:29:51;98697.13;;;9.21;67.60
21276;BME280;36472;52.170;20.884;2023-03-14T02:32:23;98685.38;;;9.25;67.17
21276;BME280;36472;52.170;20.884;2023-03-14T02:34:55;98683.56;;;9.16;67.43
21276;BME280;36472;52.170;20.884;2023-03-14T02:37:34;98678.59;;;9.13;67.41
21276;BME280;36472;52.170;20.884;2023-03-14T02:40:08;98670.03;;;9.11;67.30
21276;BME280;36472;52.170;20.884;2023-03-14T02:42:40;98676.41;;;9.18;66.96
21276;BME280;36472;52.170;20.884;2023-03-14T02:45:40;98665.63;;;9.11;66.99
21276;BME280;36472;52.170;20.884;2023-03-14T02:48:19;98676.66;;;9.15;67.08
21276;BME280;36472;52.170;20.884;2023-03-14T02:50:54;98668.50;;;9.08;67.37
21276;BME280;36472;52.170;20.884;2023-03-14T02:53:28;98673.09;;;9.16;67.11
21276;BME280;36472;52.170;20.884;2023-03-14T02:56:01;98673.63;;;9.10;67.23
21276;BME280;36472;52.170;20.884;2023-03-14T02:58:35;98664.53;;;9.14;66.90
21276;BME280;36472;52.170;20.884;2023-03-14T03:01:24;98670.03;;;9.11;66.99
21276;BME280;36472;52.170;20.884;2023-03-14T03:03:53;98667.00;;;9.06;66.63
21276;BME280;36472;52.170;20.884;2023-03-14T03:06:22;98671.25;;;9.07;67.31
21276;BME280;36472;52.170;20.884;2023-03-14T03:08:52;98674.97;;;9.04;67.18
21276;BME280;36472;52.170;20.884;2023-03-14T03:11:21;98677.72;;;9.03;66.86
21276;BME280;36472;52.170;20.884;2023-03-14T03:13:51;98676.91;;;9.02;66.97
21276;BME280;36472;52.170;20.884;2023-03-14T03:16:21;98675.63;;;8.96;66.85
21276;BME280;36472;52.170;20.884;2023-03-14T03:18:50;98670.94;;;9.00;66.93
21276;BME280;36472;52.170;20.884;2023-03-14T03:21:21;98665.59;;;9.02;66.61
21276;BME280;36472;52.170;20.884;2023-03-14T03:23:51;98663.25;;;8.98;66.09
21276;BME280;36472;52.170;20.884;2023-03-14T03:26:20;98661.19;;;9.02;66.25
21276;BME280;36472;52.170;20.884;2023-03-14T03:28:52;98665.03;;;8.98;66.17
21276;BME280;36472;52.170;20.884;2023-03-14T03:31:22;98667.38;;;9.01;65.89
21276;BME280;36472;52.170;20.884;2023-03-14T03:33:51;98662.00;;;9.03;65.72
21276;BME280;36472;52.170;20.884;2023-03-14T03:36:22;98662.53;;;8.96;65.75
21276;BME280;36472;52.170;20.884;2023-03-14T03:38:51;98656.91;;;9.01;65.85
21276;BME280;36472;52.170;20.884;2023-03-14T03:41:20;98643.50;;;8.94;65.45
21276;BME280;36472;52.170;20.884;2023-03-14T03:43:52;98638.94;;;8.87;65.34
21276;BME280;36472;52.170;20.884;2023-03-14T03:46:22;98634.25;;;8.90;65.49
21276;BME280;36472;52.170;20.884;2023-03-14T03:48:55;98641.00;;;8.93;65.31
21276;BME280;36472;52.170;20.884;2023-03-14T03:51:27;98623.66;;;9.02;64.68
21276;BME280;36472;52.170;20.884;2023-03-14T03:53:57;98639.66;;;8.98;64.80
21276;BME280;36472;52.170;20.884;2023-03-14T03:56:32;98636.75;;;9.02;64.53
21276;BME280;36472;52.170;20.884;2023-03-14T03:59:02;98640.91;;;9.04;64.23
21276;BME280;36472;52.170;20.884;2023-03-14T04:01:32;98650.59;;;9.04;64.01
21276;BME280;36472;52.170;20.884;2023-03-14T04:04:01;98647.97;;;9.04;64.11
21276;BME280;36472;52.170;20.884;2023-03-14T04:06:30;98652.34;;;9.03;64.28
21276;BME280;36472;52.170;20.884;2023-03-14T04:09:01;98668.19;;;9.02;64.36
21276;BME280;36472;52.170;20.884;2023-03-14T04:11:56;98666.16;;;9.05;64.08
21276;BME280;36472;52.170;20.884;2023-03-14T04:14:36;98671.09;;;8.98;64.41
21276;BME280;36472;52.170;20.884;2023-03-14T04:17:11;98665.03;;;8.98;64.46
21276;BME280;36472;52.170;20.884;2023-03-14T04:19:40;98669.25;;;8.89;64.72
21276;BME280;36472;52.170;20.884;2023-03-14T04:22:10;98644.19;;;8.87;64.64
21276;BME280;36472;52.170;20.884;2023-03-14T04:24:47;98648.69;;;8.85;64.70
21276;BME280;36472;52.170;20.884;2023-03-14T04:27:16;98658.91;;;8.88;64.57
21276;BME280;36472;52.170;20.884;2023-03-14T04:29:47;98660.72;;;8.87;64.45
21276;BME280;36472;52.170;20.884;2023-03-14T04:32:22;98653.38;;;8.81;64.90
21276;BME280;36472;52.170;20.884;2023-03-14T04:34:51;98656.84;;;8.82;64.87
21276;BME280;36472;52.170;20.884;2023-03-14T04:37:20;98656.78;;;8.72;64.99
21276;BME280;36472;52.170;20.884;2023-03-14T04:39:49;98655.28;;;8.79;64.99
21276;BME280;36472;52.170;20.884;2023-03-14T04:42:25;98647.44;;;8.79;64.98
21276;BME280;36472;52.170;20.884;2023-03-14T04:44:56;98634.59;;;8.76;64.74
21276;BME280;36472;52.170;20.884;2023-03-14T04:47:28;98620.25;;;8.70;64.98
21276;BME280;36472;52.170;20.884;2023-03-14T04:49:57;98610.09;;;8.77;64.99
21276;BME280;36472;52.170;20.884;2023-03-14T04:52:27;98612.44;;;8.80;65.22
21276;BME280;36472;52.170;20.884;2023-03-14T04:54:57;98610.25;;;8.85;64.61
21276;BME280;36472;52.170;20.884;2023-03-14T04:57:27;98604.47;;;8.91;64.87
21276;BME280;36472;52.170;20.884;2023-03-14T04:59:58;98601.03;;;8.91;64.54
21276;BME280;36472;52.170;20.884;2023-03-14T05:02:46;98597.03;;;8.96;64.30
21276;BME280;36472;52.170;20.884;2023-03-14T05:05:27;98594.16;;;8.99;64.08
21276;BME280;36472;52.170;20.884;2023-03-14T05:08:11;98586.72;;;9.05;63.01
21276;BME280;36472;52.170;20.884;2023-03-14T05:10:43;98573.63;;;9.05;63.30
21276;BME280;36472;52.170;20.884;2023-03-14T05:13:18;98568.53;;;9.13;62.82
21276;BME280;36472;52.170;20.884;2023-03-14T05:16:14;98564.25;;;9.12;63.14
21276;BME280;36472;52.170;20.884;2023-03-14T05:18:52;98568.94;;;9.08;63.12
21276;BME280;36472;52.170;20.884;2023-03-14T05:21:37;98584.25;;;9.13;63.24
21276;BME280;36472;52.170;20.884;2023-03-14T05:24:24;98588.13;;;9.09;62.54
21276;BME280;36472;52.170;20.884;2023-03-14T05:27:13;98582.06;;;9.18;62.39
21276;BME280;36472;52.170;20.884;2023-03-14T05:30:00;98574.31;;;9.07;62.53
21276;BME280;36472;52.170;20.884;2023-03-14T05:32:59;98568.41;;;9.14;62.85
21276;BME280;36472;52.170;20.884;2023-03-14T05:35:43;98563.25;;;9.03;62.84
21276;BME280;36472;52.170;20.884;2023-03-14T05:38:33;98561.91;;;9.09;63.10
21276;BME280;36472;52.170;20.884;2023-03-14T05:41:28;98548.22;;;9.05;63.05
21276;BME280;36472;52.170;20.884;2023-03-14T05:43:57;98546.47;;;9.06;63.41
21276;BME280;36472;52.170;20.884;2023-03-14T05:46:32;98549.22;;;9.04;63.33
21276;BME280;36472;52.170;20.884;2023-03-14T05:49:25;98540.13;;;8.98;63.37
21276;BME280;36472;52.170;20.884;2023-03-14T05:52:12;98537.75;;;9.05;63.14
21276;BME280;36472;52.170;20.884;2023-03-14T05:55:05;98532.25;;;9.18;63.06
21276;BME280;36472;52.170;20.884;2023-03-14T05:57:55;98520.69;;;9.30;62.70
21276;BME280;36472;52.170;20.884;2023-03-14T06:00:42;98521.09;;;9.45;62.14
21276;BME280;36472;52.170;20.884;2023-03-14T06:03:35;98521.66;;;9.59;61.12
21276;BME280;36472;52.170;20.884;2023-03-14T06:06:07;98508.50;;;9.68;61.43
21276;BME280;36472;52.170;20.884;2023-03-14T06:08:37;98505.88;;;9.78;60.50
21276;BME280;36472;52.170;20.884;2023-03-14T06:11:07;98513.72;;;9.88;60.19
21276;BME280;36472;52.170;20.884;2023-03-14T06:13:37;98501.28;;;9.90;60.04
21276;BME280;36472;52.170;20.884;2023-03-14T06:16:07;98504.03;;;9.88;59.73
21276;BME280;36472;52.170;20.884;2023-03-14T06:18:36;98506.94;;;9.95;59.91
21276;BME280;36472;52.170;20.884;2023-03-14T06:21:09;98501.00;;;10.03;59.85
21276;BME280;36472;52.170;20.884;2023-03-14T06:23:38;98511.91;;;9.98;59.12
21276;BME280;36472;52.170;20.884;2023-03-14T06:26:08;98513.09;;;10.14;59.21
21276;BME280;36472;52.170;20.884;2023-03-14T06:28:38;98509.31;;;10.26;58.83
21276;BME280;36472;52.170;20.884;2023-03-14T06:31:08;98513.03;;;10.33;58.60
21276;BME280;36472;52.170;20.884;2023-03-14T06:33:48;98509.84;;;10.39;58.43
21276;BME280;36472;52.170;20.884;2023-03-14T06:36:19;98501.69;;;10.42;58.46
21276;BME280;36472;52.170;20.884;2023-03-14T06:38:49;98503.91;;;10.37;57.93
21276;BME280;36472;52.170;20.884;2023-03-14T06:41:19;98501.41;;;10.45;57.66
21276;BME280;36472;52.170;20.884;2023-03-14T06:43:51;98500.81;;;10.52;57.59
21276;BME280;36472;52.170;20.884;2023-03-14T06:46:23;98488.91;;;10.57;57.57
21276;BME280;36472;52.170;20.884;2023-03-14T06:48:53;98489.59;;;10.77;56.81
21276;BME280;36472;52.170;20.884;2023-03-14T06:51:24;98492.03;;;10.89;56.89
21276;BME280;36472;52.170;20.884;2023-03-14T06:53:54;98504.94;;;11.00;56.38
21276;BME280;36472;52.170;20.884;2023-03-14T06:56:26;98500.50;;;11.18;55.81
21276;BME280;36472;52.170;20.884;2023-03-14T06:58:57;98497.13;;;11.44;56.65
21276;BME280;36472;52.170;20.884;2023-03-14T07:01:30;98481.56;;;11.51;54.68
21276;BME280;36472;52.170;20.884;2023-03-14T07:04:09;98474.59;;;11.68;54.76
21276;BME280;36472;52.170;20.884;2023-03-14T07:06:43;98489.28;;;11.70;54.64
21276;BME280;36472;52.170;20.884;2023-03-14T07:09:15;98501.19;;;11.83;54.39
21276;BME280;36472;52.170;20.884;2023-03-14T07:11:51;98504.28;;;11.78;53.94
21276;BME280;36472;52.170;20.884;2023-03-14T07:14:20;98507.28;;;11.83;54.32
21276;BME280;36472;52.170;20.884;2023-03-14T07:16:49;98510.88;;;12.00;54.08
21276;BME280;36472;52.170;20.884;2023-03-14T07:19:19;98518.47;;;12.03;54.45
21276;BME280;36472;52.170;20.884;2023-03-14T07:21:49;98517.28;;;11.97;54.08
21276;BME280;36472;52.170;20.884;2023-03-14T07:24:23;98510.13;;;12.16;53.73
21276;BME280;36472;52.170;20.884;2023-03-14T07:26:52;98513.44;;;12.52;54.16
21276;BME280;36472;52.170;20.884;2023-03-14T07:29:26;98516.03;;;12.87;53.40
21276;BME280;36472;52.170;20.884;2023-03-14T07:31:55;98515.72;;;13.06;52.37
21276;BME280;36472;52.170;20.884;2023-03-14T07:34:25;98514.09;;;13.05;52.38
21276;BME280;36472;52.170;20.884;2023-03-14T07:36:56;98521.19;;;13.21;51.60
21276;BME280;36472;52.170;20.884;2023-03-14T07:39:26;98525.38;;;13.40;51.95
21276;BME280;36472;52.170;20.884;2023-03-14T07:42:01;98527.38;;;13.55;51.15
21276;BME280;36472;52.170;20.884;2023-03-14T07:44:48;98521.59;;;13.76;50.71
21276;BME280;36472;52.170;20.884;2023-03-14T07:47:17;98518.78;;;13.86;50.39
21276;BME280;36472;52.170;20.884;2023-03-14T07:49:46;98513.97;;;13.97;50.50
21276;BME280;36472;52.170;20.884;2023-03-14T07:52:17;98523.50;;;14.15;50.10
21276;BME280;36472;52.170;20.884;2023-03-14T07:54:46;98516.03;;;14.27;49.64
21276;BME280;36472;52.170;20.884;2023-03-14T07:57:14;98512.72;;;14.33;48.95
21276;BME280;36472;52.170;20.884;2023-03-14T07:59:44;98509.31;;;14.64;49.11
21276;BME280;36472;52.170;20.884;2023-03-14T08:02:13;98514.28;;;14.98;49.31
21276;BME280;36472;52.170;20.884;2023-03-14T08:04:42;98506.81;;;15.02;47.32
21276;BME280;36472;52.170;20.884;2023-03-14T08:07:11;98523.94;;;15.14;47.64
21276;BME280;36472;52.170;20.884;2023-03-14T08:09:42;98523.34;;;15.27;47.98
21276;BME280;36472;52.170;20.884;2023-03-14T08:12:11;98530.22;;;15.36;48.64
21276;BME280;36472;52.170;20.884;2023-03-14T08:14:40;98529.81;;;15.24;47.59
21276;BME280;36472;52.170;20.884;2023-03-14T08:17:09;98527.88;;;15.18;47.96
21276;BME280;36472;52.170;20.884;2023-03-14T08:19:39;98523.81;;;15.07;47.34
21276;BME280;36472;52.170;20.884;2023-03-14T08:22:09;98520.66;;;15.12;48.35
21276;BME280;36472;52.170;20.884;2023-03-14T08:24:38;98529.91;;;15.08;48.49
21276;BME280;36472;52.170;20.884;2023-03-14T08:27:09;98524.22;;;15.19;48.38
21276;BME280;36472;52.170;20.884;2023-03-14T08:29:39;98530.41;;;15.34;48.25
21276;BME280;36472;52.170;20.884;2023-03-14T08:32:09;98540.88;;;15.51;48.00
21276;BME280;36472;52.170;20.884;2023-03-14T08:34:38;98541.53;;;15.76;47.33
21276;BME280;36472;52.170;20.884;2023-03-14T08:37:07;98523.75;;;16.00;47.06
21276;BME280;36472;52.170;20.884;2023-03-14T08:39:53;98528.97;;;16.08;46.16
21276;BME280;36472;52.170;20.884;2023-03-14T08:42:24;98534.84;;;16.33;46.75
21276;BME280;36472;52.170;20.884;2023-03-14T08:44:53;98524.63;;;16.45;45.88
21276;BME280;36472;52.170;20.884;2023-03-14T08:47:22;98525.16;;;16.40;46.00
21276;BME280;36472;52.170;20.884;2023-03-14T08:49:51;98525.53;;;16.37;45.38
21276;BME280;36472;52.170;20.884;2023-03-14T08:52:20;98531.91;;;16.58;45.48
21276;BME280;36472;52.170;20.884;2023-03-14T08:54:49;98530.34;;;16.93;45.10
21276;BME280;36472;52.170;20.884;2023-03-14T08:57:18;98519.00;;;17.21;44.49
21276;BME280;36472;52.170;20.884;2023-03-14T08:59:50;98512.97;;;17.55;44.21
21276;BME280;36472;52.170;20.884;2023-03-14T09:02:19;98518.91;;;17.79;43.57
21276;BME280;36472;52.170;20.884;2023-03-14T09:04:51;98515.13;;;17.88;43.64
21276;BME280;36472;52.170;20.884;2023-03-14T09:07:20;98508.88;;;17.53;42.80
21276;BME280;36472;52.170;20.884;2023-03-14T09:09:49;98512.50;;;17.24;43.85
21276;BME280;36472;52.170;20.884;2023-03-14T09:12:18;98510.22;;;17.20;44.70
21276;BME280;36472;52.170;20.884;2023-03-14T09:14:47;98503.13;;;17.06;44.64
21276;BME280;36472;52.170;20.884;2023-03-14T09:17:17;98500.13;;;16.94;44.53
21276;BME280;36472;52.170;20.884;2023-03-14T09:19:46;98498.88;;;16.75;44.20
21276;BME280;36472;52.170;20.884;2023-03-14T09:22:15;98500.72;;;16.75;45.03
21276;BME280;36472;52.170;20.884;2023-03-14T09:24:44;98493.56;;;16.75;45.15
21276;BME280;36472;52.170;20.884;2023-03-14T09:27:13;98488.69;;;16.79;44.33
21276;BME280;36472;52.170;20.884;2023-03-14T09:29:42;98484.88;;;16.81;44.73
21276;BME280;36472;52.170;20.884;2023-03-14T09:32:11;98476.91;;;16.96;45.26
21276;BME280;36472;52.170;20.884;2023-03-14T09:34:41;98483.41;;;16.94;44.31
21276;BME280;36472;52.170;20.884;2023-03-14T09:37:10;98474.88;;;16.98;44.60
21276;BME280;36472;52.170;20.884;2023-03-14T09:39:40;98484.09;;;17.02;45.38
21276;BME280;36472;52.170;20.884;2023-03-14T09:42:16;98478.31;;;17.14;45.07
21276;BME280;36472;52.170;20.884;2023-03-14T09:44:54;98466.16;;;17.05;43.10
21276;BME280;36472;52.170;20.884;2023-03-14T09:47:25;98462.75;;;17.11;44.70
21276;BME280;36472;52.170;20.884;2023-03-14T09:49:56;98457.81;;;17.08;43.38
21276;BME280;36472;52.170;20.884;2023-03-14T09:52:31;98456.19;;;17.07;43.47
21276;BME280;36472;52.170;20.884;2023-03-14T09:55:05;98438.63;;;17.55;43.45
21276;BME280;36472;52.170;20.884;2023-03-14T09:57:36;98435.31;;;18.10;41.61
21276;BME280;36472;52.170;20.884;2023-03-14T10:00:14;98422.88;;;18.65;40.52
21276;BME280;36472;52.170;20.884;2023-03-14T10:02:52;98426.97;;;18.68;41.51
21276;BME280;36472;52.170;20.884;2023-03-14T10:05:25;98422.06;;;18.78;40.99
21276;BME280;36472;52.170;20.884;2023-03-14T10:07:55;98431.91;;;18.78;41.37
21276;BME280;36472;52.170;20.884;2023-03-14T10:10:26;98437.28;;;18.29;41.14
21276;BME280;36472;52.170;20.884;2023-03-14T10:12:58;98449.81;;;18.01;42.40
21276;BME280;36472;52.170;20.884;2023-03-14T10:15:32;98450.22;;;17.76;42.12
21276;BME280;36472;52.170;20.884;2023-03-14T10:18:04;98444.41;;;17.66;42.90
21276;BME280;36472;52.170;20.884;2023-03-14T10:20:44;98434.81;;;17.65;43.01
21276;BME280;36472;52.170;20.884;2023-03-14T10:23:27;98442.31;;;17.54;43.00
21276;BME280;36472;52.170;20.884;2023-03-14T10:26:08;98445.66;;;17.42;43.49
21276;BME280;36472;52.170;20.884;2023-03-14T10:28:45;98441.28;;;17.27;44.24
21276;BME280;36472;52.170;20.884;2023-03-14T10:31:15;98440.44;;;17.27;44.43
21276;BME280;36472;52.170;20.884;2023-03-14T10:33:59;98432.88;;;17.24;44.37
21276;BME280;36472;52.170;20.884;2023-03-14T10:36:32;98426.28;;;17.41;44.53
21276;BME280;36472;52.170;20.884;2023-03-14T10:39:25;98431.13;;;17.66;44.01
21276;BME280;36472;52.170;20.884;2023-03-14T10:42:04;98414.78;;;17.90;43.45
21276;BME280;36472;52.170;20.884;2023-03-14T10:44:35;98419.75;;;18.07;43.08
21276;BME280;36472;52.170;20.884;2023-03-14T10:47:05;98421.66;;;18.13;43.83
21276;BME280;36472;52.170;20.884;2023-03-14T10:49:36;98416.94;;;18.15;43.38
21276;BME280;36472;52.170;20.884;2023-03-14T10:52:22;98417.78;;;18.22;42.84
21276;BME280;36472;52.170;20.884;2023-03-14T10:55:12;98419.13;;;18.46;42.60
21276;BME280;36472;52.170;20.884;2023-03-14T10:57:42;98420.97;;;18.46;42.43
21276;BME280;36472;52.170;20.884;2023-03-14T11:00:17;98419.59;;;18.15;42.53
21276;BME280;36472;52.170;20.884;2023-03-14T11:03:04;98417.00;;;18.28;42.07
21276;BME280;36472;52.170;20.884;2023-03-14T11:05:43;98417.84;;;18.36;42.60
21276;BME280;36472;52.170;20.884;2023-03-14T11:08:25;98426.38;;;18.18;42.15
21276;BME280;36472;52.170;20.884;2023-03-14T11:11:09;98418.72;;;18.01;42.53
21276;BME280;36472;52.170;20.884;2023-03-14T11:14:07;98423.78;;;17.68;42.62
21276;BME280;36472;52.170;20.884;2023-03-14T11:16:53;98432.00;;;17.45;43.26
21276;BME280;36472;52.170;20.884;2023-03-14T11:19:39;98435.84;;;17.35;44.77
21276;BME280;36472;52.170;20.884;2023-03-14T11:22:21;98450.16;;;17.19;44.62
21276;BME280;36472;52.170;20.884;2023-03-14T11:25:20;98449.16;;;16.99;44.47
21276;BME280;36472;52.170;20.884;2023-03-14T11:28:00;98449.13;;;16.77;44.71
21276;BME280;36472;52.170;20.884;2023-03-14T11:30:39;98428.03;;;16.69;45.45
21276;BME280;36472;52.170;20.884;2023-03-14T11:33:16;98418.72;;;16.58;45.08
21276;BME280;36472;52.170;20.884;2023-03-14T11:35:55;98423.56;;;16.55;46.02
21276;BME280;36472;52.170;20.884;2023-03-14T11:38:36;98417.44;;;16.54;46.44
21276;BME280;36472;52.170;20.884;2023-03-14T11:41:15;98422.94;;;16.53;46.41
21276;BME280;36472;52.170;20.884;2023-03-14T11:43:49;98427.31;;;16.97;46.86
21276;BME280;36472;52.170;20.884;2023-03-14T11:46:26;98417.69;;;18.44;43.82
21276;BME280;36472;52.170;20.884;2023-03-14T11:49:03;98421.22;;;18.64;42.95
21276;BME280;36472;52.170;20.884;2023-03-14T11:51:38;98430.41;;;18.48;43.33
21276;BME280;36472;52.170;20.884;2023-03-14T11:54:16;98433.53;;;18.24;43.57
21276;BME280;36472;52.170;20.884;2023-03-14T11:56:55;98431.59;;;17.98;43.43
21276;BME280;36472;52.170;20.884;2023-03-14T11:59:30;98429.59;;;17.78;44.25
21276;BME280;36472;52.170;20.884;2023-03-14T12:02:10;98441.38;;;17.69;44.61
21276;BME280;36472;52.170;20.884;2023-03-14T12:05:05;98440.53;;;17.62;44.34
21276;BME280;36472;52.170;20.884;2023-03-14T12:08:09;98413.88;;;17.76;45.26
21276;BME280;36472;52.170;20.884;2023-03-14T12:10:47;98417.69;;;17.96;44.64
21276;BME280;36472;52.170;20.884;2023-03-14T12:13:19;98432.16;;;17.93;44.33
21276;BME280;36472;52.170;20.884;2023-03-14T12:15:56;98430.84;;;17.82;45.13
21276;BME280;36472;52.170;20.884;2023-03-14T12:18:29;98436.63;;;17.64;44.51
21276;BME280;36472;52.170;20.884;2023-03-14T12:21:03;98442.19;;;17.41;45.41
21276;BME280;36472;52.170;20.884;2023-03-14T12:23:37;98434.31;;;17.26;46.35
21276;BME280;36472;52.170;20.884;2023-03-14T12:26:17;98430.47;;;17.07;46.20
21276;BME280;36472;52.170;20.884;2023-03-14T12:28:52;98433.47;;;16.82;47.01
21276;BME280;36472;52.170;20.884;2023-03-14T12:31:43;98446.00;;;16.74;47.26
21276;BME280;36472;52.170;20.884;2023-03-14T12:34:29;98440.94;;;16.57;47.46
21276;BME280;36472;52.170;20.884;2023-03-14T12:37:28;98434.59;;;16.22;48.43
21276;BME280;36472;52.170;20.884;2023-03-14T12:40:21;98441.19;;;16.11;48.38
21276;BME280;36472;52.170;20.884;2023-03-14T12:43:00;98452.78;;;15.95;49.10
21276;BME280;36472;52.170;20.884;2023-03-14T12:45:34;98447.78;;;15.85;49.83
21276;BME280;36472;52.170;20.884;2023-03-14T12:48:15;98453.16;;;15.77;50.79
21276;BME280;36472;52.170;20.884;2023-03-14T12:50:54;98454.09;;;15.61;52.25
21276;BME280;36472;52.170;20.884;2023-03-14T12:53:55;98446.81;;;15.40;52.24
21276;BME280;36472;52.170;20.884;2023-03-14T12:57:01;98455.97;;;15.14;53.60
21276;BME280;36472;52.170;20.884;2023-03-14T12:59:35;98451.88;;;14.81;54.97
21276;BME280;36472;52.170;20.884;2023-03-14T13:02:25;98445.94;;;14.47;57.52
21276;BME280;36472;52.170;20.884;2023-03-14T13:05:03;98459.78;;;14.10;59.70
21276;BME280;36472;52.170;20.884;2023-03-14T13:08:04;98462.00;;;13.81;63.60
21276;BME280;36472;52.170;20.884;2023-03-14T13:10:45;98456.28;;;13.53;67.11
21276;BME280;36472;52.170;20.884;2023-03-14T13:13:21;98457.28;;;13.36;69.20
21276;BME280;36472;52.170;20.884;2023-03-14T13:15:56;98457.75;;;13.23;68.81
21276;BME280;36472;52.170;20.884;2023-03-14T13:18:34;98449.16;;;13.13;70.05
21276;BME280;36472;52.170;20.884;2023-03-14T13:21:12;98457.91;;;12.97;70.25
21276;BME280;36472;52.170;20.884;2023-03-14T13:23:56;98459.50;;;12.89;71.51
21276;BME280;36472;52.170;20.884;2023-03-14T13:26:34;98463.63;;;12.84;73.57
21276;BME280;36472;52.170;20.884;2023-03-14T13:29:17;98459.69;;;12.80;72.58
21276;BME280;36472;52.170;20.884;2023-03-14T13:31:49;98467.06;;;12.84;74.29
21276;BME280;36472;52.170;20.884;2023-03-14T13:34:19;98470.53;;;12.77;75.03